sensor_id;sensor_type;location;lat;lon;timestamp;P1;durP1;ratioP1;P2;durP2;ratioP2
45867;SDS011;31582;45.490;7.860;2023-02-03T00:01:51;1.77;;;1.67;;
45867;SDS011;31582;45.490;7.860;2023-02-03T00:04:18;1.80;;;1.70;;
45867;SDS011;31582;45.490;7.860;2023-02-03T00:06:45;1.60;;;1.50;;
45867;SDS011;31582;45.490;7.860;2023-02-03T00:09:13;1.60;;;1.50;;
45867;SDS011;31582;45.490;7.860;2023-02-03T00:11:40;1.40;;;1.30;;
45867;SDS011;31582;45.490;7.860;2023-02-03T00:14:07;1.10;;;1.10;;
45867;SDS011;31582;45.490;7.860;2023-02-03T00:16:34;1.02;;;0.93;;
45867;SDS011;31582;45.490;7.860;2023-02-03T00:19:01;0.90;;;0.90;;
45867;SDS011;31582;45.490;7.860;2023-02-03T00:21:28;1.20;;;1.10;;
45867;SDS011;31582;45.490;7.860;2023-02-03T00:23:55;0.73;;;0.73;;
45867;SDS011;31582;45.490;7.860;2023-02-03T00:26:22;0.70;;;0.70;;
45867;SDS011;31582;45.490;7.860;2023-02-03T00:28:51;0.70;;;0.70;;
45867;SDS011;31582;45.490;7.860;2023-02-03T00:31:19;0.80;;;0.80;;
45867;SDS011;31582;45.490;7.860;2023-02-03T00:33:47;0.70;;;0.70;;
45867;SDS011;31582;45.490;7.860;2023-02-03T00:36:20;0.60;;;0.60;;
45867;SDS011;31582;45.490;7.860;2023-02-03T00:38:48;0.80;;;0.80;;
45867;SDS011;31582;45.490;7.860;2023-02-03T00:41:15;1.00;;;1.00;;
45867;SDS011;31582;45.490;7.860;2023-02-03T00:43:43;0.70;;;0.70;;
45867;SDS011;31582;45.490;7.860;2023-02-03T00:46:10;1.15;;;1.15;;
45867;SDS011;31582;45.490;7.860;2023-02-03T00:48:37;1.08;;;1.08;;
45867;SDS011;31582;45.490;7.860;2023-02-03T00:51:05;1.45;;;1.42;;
45867;SDS011;31582;45.490;7.860;2023-02-03T00:53:32;1.23;;;1.13;;
45867;SDS011;31582;45.490;7.860;2023-02-03T00:55:59;1.17;;;1.17;;
45867;SDS011;31582;45.490;7.860;2023-02-03T00:58:26;1.25;;;1.25;;
45867;SDS011;31582;45.490;7.860;2023-02-03T01:00:53;1.27;;;1.10;;
45867;SDS011;31582;45.490;7.860;2023-02-03T01:03:22;1.05;;;1.05;;
45867;SDS011;31582;45.490;7.860;2023-02-03T01:05:49;1.48;;;1.38;;
45867;SDS011;31582;45.490;7.860;2023-02-03T01:08:16;1.55;;;1.45;;
45867;SDS011;31582;45.490;7.860;2023-02-03T01:10:43;1.70;;;1.60;;
45867;SDS011;31582;45.490;7.860;2023-02-03T01:13:10;1.67;;;1.58;;
45867;SDS011;31582;45.490;7.860;2023-02-03T01:15:37;2.70;;;2.50;;
45867;SDS011;31582;45.490;7.860;2023-02-03T01:18:03;2.33;;;2.23;;
45867;SDS011;31582;45.490;7.860;2023-02-03T01:20:30;2.58;;;2.38;;
45867;SDS011;31582;45.490;7.860;2023-02-03T01:22:57;2.17;;;2.08;;
45867;SDS011;31582;45.490;7.860;2023-02-03T01:25:24;2.22;;;2.13;;
45867;SDS011;31582;45.490;7.860;2023-02-03T01:27:51;3.07;;;2.87;;
45867;SDS011;31582;45.490;7.860;2023-02-03T01:30:18;3.30;;;3.08;;
45867;SDS011;31582;45.490;7.860;2023-02-03T01:32:44;3.20;;;3.03;;
45867;SDS011;31582;45.490;7.860;2023-02-03T01:35:11;2.40;;;2.30;;
45867;SDS011;31582;45.490;7.860;2023-02-03T01:37:38;2.70;;;2.60;;
45867;SDS011;31582;45.490;7.860;2023-02-03T01:40:05;2.60;;;2.50;;
45867;SDS011;31582;45.490;7.860;2023-02-03T01:42:33;2.63;;;2.53;;
45867;SDS011;31582;45.490;7.860;2023-02-03T01:44:59;2.60;;;2.50;;
45867;SDS011;31582;45.490;7.860;2023-02-03T01:47:30;2.67;;;2.58;;
45867;SDS011;31582;45.490;7.860;2023-02-03T01:50:04;3.25;;;3.05;;
45867;SDS011;31582;45.490;7.860;2023-02-03T01:52:44;3.67;;;3.47;;
45867;SDS011;31582;45.490;7.860;2023-02-03T01:55:20;3.50;;;3.30;;
45867;SDS011;31582;45.490;7.860;2023-02-03T01:57:54;2.83;;;2.72;;
45867;SDS011;31582;45.490;7.860;2023-02-03T02:00:32;2.43;;;2.33;;
45867;SDS011;31582;45.490;7.860;2023-02-03T02:05:34;2.60;;;2.50;;
45867;SDS011;31582;45.490;7.860;2023-02-03T02:08:06;2.42;;;2.33;;
45867;SDS011;31582;45.490;7.860;2023-02-03T02:10:34;2.88;;;2.78;;
45867;SDS011;31582;45.490;7.860;2023-02-03T02:13:01;2.40;;;2.30;;
45867;SDS011;31582;45.490;7.860;2023-02-03T02:18:42;2.47;;;2.38;;
45867;SDS011;31582;45.490;7.860;2023-02-03T02:23:59;2.53;;;2.42;;
45867;SDS011;31582;45.490;7.860;2023-02-03T02:32:29;1.83;;;1.73;;
45867;SDS011;31582;45.490;7.860;2023-02-03T02:43:28;1.42;;;1.33;;
45867;SDS011;31582;45.490;7.860;2023-02-03T02:46:10;1.53;;;1.43;;
45867;SDS011;31582;45.490;7.860;2023-02-03T02:51:13;1.40;;;1.40;;
45867;SDS011;31582;45.490;7.860;2023-02-03T02:53:44;1.52;;;1.42;;
45867;SDS011;31582;45.490;7.860;2023-02-03T02:56:15;1.50;;;1.40;;
45867;SDS011;31582;45.490;7.860;2023-02-03T02:58:44;2.05;;;1.52;;
45867;SDS011;31582;45.490;7.860;2023-02-03T03:01:14;1.50;;;1.50;;
45867;SDS011;31582;45.490;7.860;2023-02-03T03:03:42;2.10;;;2.00;;
45867;SDS011;31582;45.490;7.860;2023-02-03T03:06:31;2.03;;;1.92;;
45867;SDS011;31582;45.490;7.860;2023-02-03T03:09:11;1.67;;;1.58;;
45867;SDS011;31582;45.490;7.860;2023-02-03T03:11:57;1.70;;;1.60;;
45867;SDS011;31582;45.490;7.860;2023-02-03T03:14:33;1.65;;;1.55;;
45867;SDS011;31582;45.490;7.860;2023-02-03T03:17:03;1.20;;;1.20;;
45867;SDS011;31582;45.490;7.860;2023-02-03T03:19:39;1.23;;;1.23;;
45867;SDS011;31582;45.490;7.860;2023-02-03T03:22:12;1.30;;;1.23;;
45867;SDS011;31582;45.490;7.860;2023-02-03T03:24:46;1.30;;;1.20;;
45867;SDS011;31582;45.490;7.860;2023-02-03T03:27:28;0.70;;;0.70;;
45867;SDS011;31582;45.490;7.860;2023-02-03T03:30:05;0.80;;;0.80;;
45867;SDS011;31582;45.490;7.860;2023-02-03T03:32:39;0.80;;;0.80;;
45867;SDS011;31582;45.490;7.860;2023-02-03T03:35:06;1.05;;;1.05;;
45867;SDS011;31582;45.490;7.860;2023-02-03T03:37:35;0.60;;;0.60;;
45867;SDS011;31582;45.490;7.860;2023-02-03T03:40:24;0.65;;;0.65;;
45867;SDS011;31582;45.490;7.860;2023-02-03T03:42:59;0.70;;;0.70;;
45867;SDS011;31582;45.490;7.860;2023-02-03T03:48:26;0.70;;;0.70;;
45867;SDS011;31582;45.490;7.860;2023-02-03T03:51:05;0.70;;;0.70;;
45867;SDS011;31582;45.490;7.860;2023-02-03T03:53:37;0.70;;;0.70;;
45867;SDS011;31582;45.490;7.860;2023-02-03T03:56:08;0.80;;;0.80;;
45867;SDS011;31582;45.490;7.860;2023-02-03T03:58:39;0.88;;;0.88;;
45867;SDS011;31582;45.490;7.860;2023-02-03T04:01:10;0.70;;;0.70;;
45867;SDS011;31582;45.490;7.860;2023-02-03T04:03:44;0.70;;;0.70;;
45867;SDS011;31582;45.490;7.860;2023-02-03T04:06:13;0.77;;;0.77;;
45867;SDS011;31582;45.490;7.860;2023-02-03T04:08:41;0.73;;;0.73;;
45867;SDS011;31582;45.490;7.860;2023-02-03T04:11:11;0.60;;;0.60;;
45867;SDS011;31582;45.490;7.860;2023-02-03T04:13:58;0.85;;;0.80;;
45867;SDS011;31582;45.490;7.860;2023-02-03T04:16:24;0.80;;;0.80;;
45867;SDS011;31582;45.490;7.860;2023-02-03T04:18:51;0.80;;;0.80;;
45867;SDS011;31582;45.490;7.860;2023-02-03T04:21:18;0.88;;;0.88;;
45867;SDS011;31582;45.490;7.860;2023-02-03T04:23:45;0.88;;;0.88;;
45867;SDS011;31582;45.490;7.860;2023-02-03T04:26:12;1.10;;;1.10;;
45867;SDS011;31582;45.490;7.860;2023-02-03T04:28:39;1.02;;;1.02;;
45867;SDS011;31582;45.490;7.860;2023-02-03T04:31:06;1.10;;;1.10;;
45867;SDS011;31582;45.490;7.860;2023-02-03T04:33:33;1.58;;;1.48;;
45867;SDS011;31582;45.490;7.860;2023-02-03T04:36:00;1.50;;;1.40;;
45867;SDS011;31582;45.490;7.860;2023-02-03T04:38:27;1.50;;;1.40;;
45867;SDS011;31582;45.490;7.860;2023-02-03T04:40:54;1.58;;;1.50;;
45867;SDS011;31582;45.490;7.860;2023-02-03T04:43:21;1.50;;;1.50;;
45867;SDS011;31582;45.490;7.860;2023-02-03T04:45:48;1.80;;;1.70;;
45867;SDS011;31582;45.490;7.860;2023-02-03T04:48:15;1.70;;;1.60;;
45867;SDS011;31582;45.490;7.860;2023-02-03T04:50:42;1.60;;;1.50;;
45867;SDS011;31582;45.490;7.860;2023-02-03T04:53:09;1.50;;;1.30;;
45867;SDS011;31582;45.490;7.860;2023-02-03T04:55:36;1.58;;;1.48;;
45867;SDS011;31582;45.490;7.860;2023-02-03T04:58:03;1.27;;;1.27;;
45867;SDS011;31582;45.490;7.860;2023-02-03T05:00:30;1.75;;;1.65;;
45867;SDS011;31582;45.490;7.860;2023-02-03T05:02:57;1.40;;;1.40;;
45867;SDS011;31582;45.490;7.860;2023-02-03T05:05:24;1.60;;;1.50;;
45867;SDS011;31582;45.490;7.860;2023-02-03T05:07:51;1.80;;;1.70;;
45867;SDS011;31582;45.490;7.860;2023-02-03T05:10:18;1.70;;;1.60;;
45867;SDS011;31582;45.490;7.860;2023-02-03T05:12:45;1.50;;;1.50;;
45867;SDS011;31582;45.490;7.860;2023-02-03T05:15:11;1.75;;;1.65;;
45867;SDS011;31582;45.490;7.860;2023-02-03T05:17:38;1.67;;;1.58;;
45867;SDS011;31582;45.490;7.860;2023-02-03T05:20:06;1.65;;;1.55;;
45867;SDS011;31582;45.490;7.860;2023-02-03T05:22:33;1.70;;;1.60;;
45867;SDS011;31582;45.490;7.860;2023-02-03T05:25:01;2.03;;;1.92;;
45867;SDS011;31582;45.490;7.860;2023-02-03T05:27:29;1.83;;;1.73;;
45867;SDS011;31582;45.490;7.860;2023-02-03T05:29:56;1.70;;;1.60;;
45867;SDS011;31582;45.490;7.860;2023-02-03T05:32:25;1.52;;;1.42;;
45867;SDS011;31582;45.490;7.860;2023-02-03T05:34:52;1.73;;;1.63;;
45867;SDS011;31582;45.490;7.860;2023-02-03T05:37:19;1.85;;;1.75;;
45867;SDS011;31582;45.490;7.860;2023-02-03T05:39:46;1.80;;;1.70;;
45867;SDS011;31582;45.490;7.860;2023-02-03T05:42:13;1.73;;;1.63;;
45867;SDS011;31582;45.490;7.860;2023-02-03T05:44:40;2.88;;;2.67;;
45867;SDS011;31582;45.490;7.860;2023-02-03T05:47:07;2.50;;;2.30;;
45867;SDS011;31582;45.490;7.860;2023-02-03T05:49:34;1.95;;;1.85;;
45867;SDS011;31582;45.490;7.860;2023-02-03T05:52:01;1.30;;;1.30;;
45867;SDS011;31582;45.490;7.860;2023-02-03T05:54:28;1.97;;;1.87;;
45867;SDS011;31582;45.490;7.860;2023-02-03T05:56:55;1.90;;;1.80;;
45867;SDS011;31582;45.490;7.860;2023-02-03T05:59:24;2.20;;;2.10;;
45867;SDS011;31582;45.490;7.860;2023-02-03T06:01:51;2.28;;;2.10;;
45867;SDS011;31582;45.490;7.860;2023-02-03T06:04:17;1.67;;;1.58;;
45867;SDS011;31582;45.490;7.860;2023-02-03T06:06:44;1.88;;;1.77;;
45867;SDS011;31582;45.490;7.860;2023-02-03T06:09:12;2.10;;;2.00;;
45867;SDS011;31582;45.490;7.860;2023-02-03T06:11:39;2.10;;;2.00;;
45867;SDS011;31582;45.490;7.860;2023-02-03T06:14:07;1.75;;;1.65;;
45867;SDS011;31582;45.490;7.860;2023-02-03T06:16:34;1.58;;;1.50;;
45867;SDS011;31582;45.490;7.860;2023-02-03T06:19:02;1.33;;;1.33;;
45867;SDS011;31582;45.490;7.860;2023-02-03T06:21:30;1.60;;;1.50;;
45867;SDS011;31582;45.490;7.860;2023-02-03T06:23:57;1.97;;;1.87;;
45867;SDS011;31582;45.490;7.860;2023-02-03T06:26:24;1.63;;;1.52;;
45867;SDS011;31582;45.490;7.860;2023-02-03T06:28:53;1.15;;;1.15;;
45867;SDS011;31582;45.490;7.860;2023-02-03T06:31:20;1.17;;;1.17;;
45867;SDS011;31582;45.490;7.860;2023-02-03T06:33:47;1.20;;;1.20;;
45867;SDS011;31582;45.490;7.860;2023-02-03T06:36:14;1.63;;;1.52;;
45867;SDS011;31582;45.490;7.860;2023-02-03T06:38:41;1.75;;;1.65;;
45867;SDS011;31582;45.490;7.860;2023-02-03T06:41:08;1.80;;;1.70;;
45867;SDS011;31582;45.490;7.860;2023-02-03T06:43:34;1.63;;;1.60;;
45867;SDS011;31582;45.490;7.860;2023-02-03T06:46:02;2.00;;;1.80;;
45867;SDS011;31582;45.490;7.860;2023-02-03T06:48:29;2.47;;;2.38;;
45867;SDS011;31582;45.490;7.860;2023-02-03T06:50:56;1.70;;;1.60;;
45867;SDS011;31582;45.490;7.860;2023-02-03T06:53:23;1.40;;;1.40;;
45867;SDS011;31582;45.490;7.860;2023-02-03T06:55:50;1.35;;;1.35;;
45867;SDS011;31582;45.490;7.860;2023-02-03T06:58:17;1.15;;;1.15;;
45867;SDS011;31582;45.490;7.860;2023-02-03T07:00:44;1.38;;;1.27;;
45867;SDS011;31582;45.490;7.860;2023-02-03T07:03:11;1.25;;;1.15;;
45867;SDS011;31582;45.490;7.860;2023-02-03T07:05:38;1.42;;;1.33;;
45867;SDS011;31582;45.490;7.860;2023-02-03T07:08:06;1.83;;;1.73;;
45867;SDS011;31582;45.490;7.860;2023-02-03T07:10:33;2.08;;;1.98;;
45867;SDS011;31582;45.490;7.860;2023-02-03T07:13:06;2.38;;;2.10;;
45867;SDS011;31582;45.490;7.860;2023-02-03T07:15:33;3.27;;;3.07;;
45867;SDS011;31582;45.490;7.860;2023-02-03T07:18:01;2.45;;;2.35;;
45867;SDS011;31582;45.490;7.860;2023-02-03T07:20:28;2.20;;;2.10;;
45867;SDS011;31582;45.490;7.860;2023-02-03T07:22:56;2.58;;;2.47;;
45867;SDS011;31582;45.490;7.860;2023-02-03T07:25:24;2.10;;;2.00;;
45867;SDS011;31582;45.490;7.860;2023-02-03T07:27:51;2.00;;;1.90;;
45867;SDS011;31582;45.490;7.860;2023-02-03T07:30:18;2.08;;;1.98;;
45867;SDS011;31582;45.490;7.860;2023-02-03T07:32:45;2.67;;;2.58;;
45867;SDS011;31582;45.490;7.860;2023-02-03T07:35:16;2.40;;;2.30;;
45867;SDS011;31582;45.490;7.860;2023-02-03T07:37:43;2.50;;;2.40;;
45867;SDS011;31582;45.490;7.860;2023-02-03T07:40:11;3.40;;;3.20;;
45867;SDS011;31582;45.490;7.860;2023-02-03T07:42:42;2.60;;;2.50;;
45867;SDS011;31582;45.490;7.860;2023-02-03T07:45:11;2.60;;;2.50;;
45867;SDS011;31582;45.490;7.860;2023-02-03T07:47:40;1.88;;;1.77;;
45867;SDS011;31582;45.490;7.860;2023-02-03T07:50:09;1.77;;;1.67;;
45867;SDS011;31582;45.490;7.860;2023-02-03T07:52:37;1.67;;;1.58;;
45867;SDS011;31582;45.490;7.860;2023-02-03T07:55:04;1.80;;;1.70;;
45867;SDS011;31582;45.490;7.860;2023-02-03T07:57:34;3.72;;;3.53;;
45867;SDS011;31582;45.490;7.860;2023-02-03T08:00:04;2.95;;;2.70;;
45867;SDS011;31582;45.490;7.860;2023-02-03T08:02:33;1.30;;;1.30;;
45867;SDS011;31582;45.490;7.860;2023-02-03T08:05:00;1.20;;;1.20;;
45867;SDS011;31582;45.490;7.860;2023-02-03T08:07:27;1.38;;;1.27;;
45867;SDS011;31582;45.490;7.860;2023-02-03T08:09:54;1.30;;;1.20;;
45867;SDS011;31582;45.490;7.860;2023-02-03T08:12:21;1.20;;;1.10;;
45867;SDS011;31582;45.490;7.860;2023-02-03T08:14:48;1.20;;;1.20;;
45867;SDS011;31582;45.490;7.860;2023-02-03T08:17:15;1.10;;;1.10;;
45867;SDS011;31582;45.490;7.860;2023-02-03T08:19:42;1.40;;;1.40;;
45867;SDS011;31582;45.490;7.860;2023-02-03T08:22:09;1.45;;;1.45;;
45867;SDS011;31582;45.490;7.860;2023-02-03T08:24:41;1.60;;;1.50;;
45867;SDS011;31582;45.490;7.860;2023-02-03T08:27:15;1.33;;;1.33;;
45867;SDS011;31582;45.490;7.860;2023-02-03T08:29:44;2.13;;;2.03;;
45867;SDS011;31582;45.490;7.860;2023-02-03T08:32:12;2.57;;;2.37;;
45867;SDS011;31582;45.490;7.860;2023-02-03T08:34:41;2.85;;;2.75;;
45867;SDS011;31582;45.490;7.860;2023-02-03T08:37:09;2.30;;;2.20;;
45867;SDS011;31582;45.490;7.860;2023-02-03T08:39:37;2.00;;;1.90;;
45867;SDS011;31582;45.490;7.860;2023-02-03T08:42:04;2.00;;;1.90;;
45867;SDS011;31582;45.490;7.860;2023-02-03T08:44:32;2.35;;;2.22;;
45867;SDS011;31582;45.490;7.860;2023-02-03T08:47:00;1.93;;;1.83;;
45867;SDS011;31582;45.490;7.860;2023-02-03T08:49:27;1.98;;;1.88;;
45867;SDS011;31582;45.490;7.860;2023-02-03T08:51:55;2.30;;;2.20;;
45867;SDS011;31582;45.490;7.860;2023-02-03T08:54:24;2.50;;;2.40;;
45867;SDS011;31582;45.490;7.860;2023-02-03T08:56:51;1.83;;;1.73;;
45867;SDS011;31582;45.490;7.860;2023-02-03T08:59:18;1.33;;;1.23;;
45867;SDS011;31582;45.490;7.860;2023-02-03T09:01:45;1.60;;;1.50;;
45867;SDS011;31582;45.490;7.860;2023-02-03T09:04:14;1.60;;;1.50;;
45867;SDS011;31582;45.490;7.860;2023-02-03T09:06:45;2.67;;;1.17;;
45867;SDS011;31582;45.490;7.860;2023-02-03T09:09:13;0.90;;;0.90;;
45867;SDS011;31582;45.490;7.860;2023-02-03T09:11:41;0.95;;;0.95;;
45867;SDS011;31582;45.490;7.860;2023-02-03T09:14:08;1.70;;;1.15;;
45867;SDS011;31582;45.490;7.860;2023-02-03T09:16:36;1.30;;;1.20;;
45867;SDS011;31582;45.490;7.860;2023-02-03T09:19:03;1.20;;;1.20;;
45867;SDS011;31582;45.490;7.860;2023-02-03T09:21:30;0.98;;;0.98;;
45867;SDS011;31582;45.490;7.860;2023-02-03T09:24:13;1.00;;;1.00;;
45867;SDS011;31582;45.490;7.860;2023-02-03T09:26:40;1.13;;;1.13;;
45867;SDS011;31582;45.490;7.860;2023-02-03T09:29:07;1.05;;;1.05;;
45867;SDS011;31582;45.490;7.860;2023-02-03T09:31:35;1.20;;;1.20;;
45867;SDS011;31582;45.490;7.860;2023-02-03T09:34:02;2.00;;;1.90;;
45867;SDS011;31582;45.490;7.860;2023-02-03T09:36:28;1.20;;;1.20;;
45867;SDS011;31582;45.490;7.860;2023-02-03T09:38:56;1.40;;;1.20;;
45867;SDS011;31582;45.490;7.860;2023-02-03T09:46:45;0.80;;;0.80;;
45867;SDS011;31582;45.490;7.860;2023-02-03T09:49:18;1.30;;;1.00;;
45867;SDS011;31582;45.490;7.860;2023-02-03T09:51:52;0.77;;;0.77;;
45867;SDS011;31582;45.490;7.860;2023-02-03T09:57:31;0.90;;;0.60;;
45867;SDS011;31582;45.490;7.860;2023-02-03T10:00:17;0.73;;;0.73;;
45867;SDS011;31582;45.490;7.860;2023-02-03T10:02:55;1.15;;;0.80;;
45867;SDS011;31582;45.490;7.860;2023-02-03T10:10:57;0.70;;;0.70;;
45867;SDS011;31582;45.490;7.860;2023-02-03T10:16:57;0.70;;;0.70;;
45867;SDS011;31582;45.490;7.860;2023-02-03T10:19:57;1.10;;;0.60;;
45867;SDS011;31582;45.490;7.860;2023-02-03T10:22:40;0.63;;;0.63;;
45867;SDS011;31582;45.490;7.860;2023-02-03T10:25:23;0.60;;;0.60;;
45867;SDS011;31582;45.490;7.860;2023-02-03T10:28:23;0.68;;;0.60;;
45867;SDS011;31582;45.490;7.860;2023-02-03T10:30:56;0.70;;;0.70;;
45867;SDS011;31582;45.490;7.860;2023-02-03T10:33:25;0.70;;;0.60;;
45867;SDS011;31582;45.490;7.860;2023-02-03T10:36:10;0.60;;;0.60;;
45867;SDS011;31582;45.490;7.860;2023-02-03T10:41:14;0.70;;;0.70;;
45867;SDS011;31582;45.490;7.860;2023-02-03T10:43:43;1.00;;;0.80;;
45867;SDS011;31582;45.490;7.860;2023-02-03T10:46:14;0.70;;;0.70;;
45867;SDS011;31582;45.490;7.860;2023-02-03T10:48:42;0.90;;;0.90;;
45867;SDS011;31582;45.490;7.860;2023-02-03T10:51:20;0.70;;;0.70;;
45867;SDS011;31582;45.490;7.860;2023-02-03T10:53:49;0.57;;;0.57;;
45867;SDS011;31582;45.490;7.860;2023-02-03T10:56:52;0.85;;;0.50;;
45867;SDS011;31582;45.490;7.860;2023-02-03T10:59:21;0.40;;;0.40;;
45867;SDS011;31582;45.490;7.860;2023-02-03T11:01:54;0.40;;;0.40;;
45867;SDS011;31582;45.490;7.860;2023-02-03T11:04:26;3.10;;;2.92;;
45867;SDS011;31582;45.490;7.860;2023-02-03T11:07:25;0.80;;;0.80;;
45867;SDS011;31582;45.490;7.860;2023-02-03T11:09:56;6.83;;;6.20;;
45867;SDS011;31582;45.490;7.860;2023-02-03T11:12:23;0.80;;;0.80;;
45867;SDS011;31582;45.490;7.860;2023-02-03T11:14:50;1.10;;;0.80;;
45867;SDS011;31582;45.490;7.860;2023-02-03T11:17:26;0.40;;;0.40;;
45867;SDS011;31582;45.490;7.860;2023-02-03T11:20:01;0.30;;;0.30;;
45867;SDS011;31582;45.490;7.860;2023-02-03T11:22:38;0.50;;;0.30;;
45867;SDS011;31582;45.490;7.860;2023-02-03T11:25:16;0.30;;;0.30;;
45867;SDS011;31582;45.490;7.860;2023-02-03T11:27:46;0.30;;;0.30;;
45867;SDS011;31582;45.490;7.860;2023-02-03T11:30:14;0.93;;;0.50;;
45867;SDS011;31582;45.490;7.860;2023-02-03T11:33:00;0.35;;;0.35;;
45867;SDS011;31582;45.490;7.860;2023-02-03T11:35:30;0.30;;;0.30;;
45867;SDS011;31582;45.490;7.860;2023-02-03T11:38:00;0.30;;;0.30;;
45867;SDS011;31582;45.490;7.860;2023-02-03T11:40:28;0.40;;;0.30;;
45867;SDS011;31582;45.490;7.860;2023-02-03T11:43:00;0.20;;;0.20;;
45867;SDS011;31582;45.490;7.860;2023-02-03T11:59:18;0.40;;;0.40;;
45867;SDS011;31582;45.490;7.860;2023-02-03T12:02:03;1.60;;;0.60;;
45867;SDS011;31582;45.490;7.860;2023-02-03T12:04:51;0.30;;;0.30;;
45867;SDS011;31582;45.490;7.860;2023-02-03T12:07:54;0.40;;;0.40;;
45867;SDS011;31582;45.490;7.860;2023-02-03T12:22:11;0.22;;;0.22;;
45867;SDS011;31582;45.490;7.860;2023-02-03T12:28:27;0.30;;;0.30;;
45867;SDS011;31582;45.490;7.860;2023-02-03T12:31:03;0.30;;;0.30;;
45867;SDS011;31582;45.490;7.860;2023-02-03T12:37:04;0.82;;;0.40;;
45867;SDS011;31582;45.490;7.860;2023-02-03T12:39:40;0.43;;;0.43;;
45867;SDS011;31582;45.490;7.860;2023-02-03T12:42:24;0.77;;;0.50;;
45867;SDS011;31582;45.490;7.860;2023-02-03T12:44:57;0.40;;;0.40;;
45867;SDS011;31582;45.490;7.860;2023-02-03T12:52:44;0.45;;;0.40;;
45867;SDS011;31582;45.490;7.860;2023-02-03T12:58:28;0.50;;;0.50;;
45867;SDS011;31582;45.490;7.860;2023-02-03T13:01:19;0.50;;;0.50;;
45867;SDS011;31582;45.490;7.860;2023-02-03T13:04:13;0.40;;;0.40;;
45867;SDS011;31582;45.490;7.860;2023-02-03T13:09:40;0.50;;;0.50;;
45867;SDS011;31582;45.490;7.860;2023-02-03T13:14:56;0.40;;;0.40;;
45867;SDS011;31582;45.490;7.860;2023-02-03T13:17:52;0.52;;;0.52;;
45867;SDS011;31582;45.490;7.860;2023-02-03T13:20:30;0.60;;;0.60;;
45867;SDS011;31582;45.490;7.860;2023-02-03T13:23:10;0.77;;;0.50;;
45867;SDS011;31582;45.490;7.860;2023-02-03T13:40:21;0.35;;;0.30;;
45867;SDS011;31582;45.490;7.860;2023-02-03T13:43:13;0.40;;;0.40;;
45867;SDS011;31582;45.490;7.860;2023-02-03T13:46:03;0.40;;;0.40;;
45867;SDS011;31582;45.490;7.860;2023-02-03T13:48:35;0.60;;;0.60;;
45867;SDS011;31582;45.490;7.860;2023-02-03T13:51:04;0.40;;;0.40;;
45867;SDS011;31582;45.490;7.860;2023-02-03T13:53:38;0.52;;;0.52;;
45867;SDS011;31582;45.490;7.860;2023-02-03T13:56:19;0.50;;;0.50;;
45867;SDS011;31582;45.490;7.860;2023-02-03T14:01:43;0.45;;;0.40;;
45867;SDS011;31582;45.490;7.860;2023-02-03T14:14:59;0.32;;;0.32;;
45867;SDS011;31582;45.490;7.860;2023-02-03T14:20:42;0.40;;;0.40;;
45867;SDS011;31582;45.490;7.860;2023-02-03T14:25:31;0.70;;;0.30;;
45867;SDS011;31582;45.490;7.860;2023-02-03T14:28:07;0.40;;;0.40;;
45867;SDS011;31582;45.490;7.860;2023-02-03T14:31:03;0.30;;;0.30;;
45867;SDS011;31582;45.490;7.860;2023-02-03T14:38:53;0.60;;;0.38;;
45867;SDS011;31582;45.490;7.860;2023-02-03T14:41:28;0.30;;;0.30;;
45867;SDS011;31582;45.490;7.860;2023-02-03T14:44:19;0.38;;;0.38;;
45867;SDS011;31582;45.490;7.860;2023-02-03T14:47:04;0.30;;;0.30;;
45867;SDS011;31582;45.490;7.860;2023-02-03T14:49:56;0.30;;;0.30;;
45867;SDS011;31582;45.490;7.860;2023-02-03T14:55:24;0.32;;;0.32;;
45867;SDS011;31582;45.490;7.860;2023-02-03T14:57:58;0.52;;;0.52;;
45867;SDS011;31582;45.490;7.860;2023-02-03T15:00:31;0.40;;;0.40;;
45867;SDS011;31582;45.490;7.860;2023-02-03T15:03:22;0.90;;;0.40;;
45867;SDS011;31582;45.490;7.860;2023-02-03T15:05:51;0.50;;;0.50;;
45867;SDS011;31582;45.490;7.860;2023-02-03T15:08:40;0.88;;;0.60;;
45867;SDS011;31582;45.490;7.860;2023-02-03T15:17:03;0.90;;;0.50;;
45867;SDS011;31582;45.490;7.860;2023-02-03T15:19:40;0.50;;;0.50;;
45867;SDS011;31582;45.490;7.860;2023-02-03T15:22:17;0.50;;;0.50;;
45867;SDS011;31582;45.490;7.860;2023-02-03T15:24:44;0.70;;;0.63;;
45867;SDS011;31582;45.490;7.860;2023-02-03T15:27:21;0.60;;;0.60;;
45867;SDS011;31582;45.490;7.860;2023-02-03T15:29:51;0.65;;;0.65;;
45867;SDS011;31582;45.490;7.860;2023-02-03T15:32:20;0.57;;;0.57;;
45867;SDS011;31582;45.490;7.860;2023-02-03T15:35:12;0.90;;;0.90;;
45867;SDS011;31582;45.490;7.860;2023-02-03T15:37:43;1.10;;;1.00;;
45867;SDS011;31582;45.490;7.860;2023-02-03T15:40:18;0.70;;;0.70;;
45867;SDS011;31582;45.490;7.860;2023-02-03T15:45:38;0.90;;;0.80;;
45867;SDS011;31582;45.490;7.860;2023-02-03T15:48:16;0.60;;;0.60;;
45867;SDS011;31582;45.490;7.860;2023-02-03T15:50:56;0.70;;;0.70;;
45867;SDS011;31582;45.490;7.860;2023-02-03T15:53:30;2.58;;;2.38;;
45867;SDS011;31582;45.490;7.860;2023-02-03T15:56:22;1.20;;;1.00;;
45867;SDS011;31582;45.490;7.860;2023-02-03T16:02:06;1.20;;;1.10;;
45867;SDS011;31582;45.490;7.860;2023-02-03T16:04:37;1.08;;;1.00;;
45867;SDS011;31582;45.490;7.860;2023-02-03T16:07:04;0.80;;;0.80;;
45867;SDS011;31582;45.490;7.860;2023-02-03T16:09:38;0.90;;;0.90;;
45867;SDS011;31582;45.490;7.860;2023-02-03T16:12:22;1.03;;;0.93;;
45867;SDS011;31582;45.490;7.860;2023-02-03T16:14:57;1.58;;;1.48;;
45867;SDS011;31582;45.490;7.860;2023-02-03T16:23:00;0.82;;;0.82;;
45867;SDS011;31582;45.490;7.860;2023-02-03T16:25:33;1.00;;;0.90;;
45867;SDS011;31582;45.490;7.860;2023-02-03T16:28:15;1.30;;;1.17;;
45867;SDS011;31582;45.490;7.860;2023-02-03T16:31:11;1.17;;;1.13;;
45867;SDS011;31582;45.490;7.860;2023-02-03T16:34:01;1.88;;;1.77;;
45867;SDS011;31582;45.490;7.860;2023-02-03T16:36:57;2.28;;;2.17;;
45867;SDS011;31582;45.490;7.860;2023-02-03T16:39:43;1.60;;;1.50;;
45867;SDS011;31582;45.490;7.860;2023-02-03T16:42:35;1.40;;;1.30;;
45867;SDS011;31582;45.490;7.860;2023-02-03T16:45:23;1.27;;;1.27;;
45867;SDS011;31582;45.490;7.860;2023-02-03T16:48:10;1.30;;;1.20;;
45867;SDS011;31582;45.490;7.860;2023-02-03T16:50:56;3.00;;;2.60;;
45867;SDS011;31582;45.490;7.860;2023-02-03T16:53:29;2.10;;;2.00;;
45867;SDS011;31582;45.490;7.860;2023-02-03T16:55:58;2.30;;;2.20;;
45867;SDS011;31582;45.490;7.860;2023-02-03T16:58:26;2.28;;;2.17;;
45867;SDS011;31582;45.490;7.860;2023-02-03T17:00:54;2.40;;;2.30;;
45867;SDS011;31582;45.490;7.860;2023-02-03T17:03:24;1.80;;;1.70;;
45867;SDS011;31582;45.490;7.860;2023-02-03T17:08:45;1.83;;;1.73;;
45867;SDS011;31582;45.490;7.860;2023-02-03T17:11:16;1.70;;;1.60;;
45867;SDS011;31582;45.490;7.860;2023-02-03T17:13:45;1.60;;;1.50;;
45867;SDS011;31582;45.490;7.860;2023-02-03T17:16:17;1.75;;;1.60;;
45867;SDS011;31582;45.490;7.860;2023-02-03T17:18:46;1.60;;;1.50;;
45867;SDS011;31582;45.490;7.860;2023-02-03T17:21:14;1.75;;;1.65;;
45867;SDS011;31582;45.490;7.860;2023-02-03T17:23:52;3.05;;;2.30;;
45867;SDS011;31582;45.490;7.860;2023-02-03T17:26:19;1.70;;;1.60;;
45867;SDS011;31582;45.490;7.860;2023-02-03T17:28:46;1.70;;;1.60;;
45867;SDS011;31582;45.490;7.860;2023-02-03T17:31:14;1.50;;;1.40;;
45867;SDS011;31582;45.490;7.860;2023-02-03T17:33:43;1.65;;;1.55;;
45867;SDS011;31582;45.490;7.860;2023-02-03T17:36:15;1.92;;;1.83;;
45867;SDS011;31582;45.490;7.860;2023-02-03T17:38:45;1.27;;;1.17;;
45867;SDS011;31582;45.490;7.860;2023-02-03T17:41:31;1.70;;;1.60;;
45867;SDS011;31582;45.490;7.860;2023-02-03T17:44:16;1.60;;;1.50;;
45867;SDS011;31582;45.490;7.860;2023-02-03T17:47:00;1.60;;;1.50;;
45867;SDS011;31582;45.490;7.860;2023-02-03T17:49:45;1.80;;;1.70;;
45867;SDS011;31582;45.490;7.860;2023-02-03T17:52:30;1.70;;;1.60;;
45867;SDS011;31582;45.490;7.860;2023-02-03T17:55:15;1.70;;;1.60;;